Terminal Aerodrome Forecast
Issued by NWS

Home | Current Version | Previous Version | Text Only | Print | Product List | Glossary On
Versions: 1 2 3 4 5 6 7 8 9 10 11 12 13
000
FTUS45 KLKN 091724
TAFEKO
TAF
KEKO 091724Z 0918/1018 22007KT 6SM -RASN BR BKN024 OVC050
     FM092000 21008KT P6SM -SHRA BKN040
     FM100700 22012KT P6SM -RASN OVC030=

USA.gov is the U.S. government's official web portal to all federal, state and local government web resources and services.